.
WxDataArchive / Data Records for 2011-01-14
2011-01-13 January 2011 2011-01-15

Data Records for Friday, 14 January 2011

Time	Temp	Chill	HIndex	Humid	Dewpt	 Wind 	HiWind	WindDir	Rain 	Barom 
-----	----	-----	------	-----	-----	------	------	-------	-----	----- 
00:00	17.0	17.0	17.0	78	11.3	0	3	248	0.00	30.411 
00:05	16.9	16.9	16.9	78	11.3	0	2	248	0.00	30.411 
00:10	16.7	16.7	16.7	77	10.8	0	2	248	0.00	30.411 
00:15	16.5	16.5	16.5	77	10.6	0	3	248	0.00	30.411 
00:20	16.4	16.4	16.4	77	10.5	0	2	248	0.00	30.411 
00:25	16.4	16.4	16.4	77	10.5	0	1	248	0.00	30.411 
00:30	16.2	16.2	16.2	77	10.3	0	1	248	0.00	30.409 
00:35	16.1	16.1	16.1	77	10.2	0	1	248	0.00	30.409 
00:40	15.9	15.9	15.9	77	10.0	0	1	248	0.00	30.409 
00:45	15.7	15.7	15.7	77	9.8	0	1	248	0.00	30.401 
00:50	15.6	15.6	15.6	78	10.0	0	0	---	0.00	30.401 
00:55	15.4	15.4	15.4	78	9.8	0	0	---	0.00	30.401 
01:00	15.2	15.2	15.2	78	9.6	0	0	---	0.00	30.402 
01:05	15.1	15.1	15.1	78	9.5	0	0	---	0.00	30.402 
01:10	14.9	14.9	14.9	78	9.3	0	0	---	0.00	30.402 
01:15	14.8	14.8	14.8	78	9.2	0	0	---	0.00	30.404 
01:20	14.6	14.6	14.6	79	9.3	0	0	---	0.00	30.404 
01:25	14.8	14.8	14.8	80	9.8	0	0	---	0.00	30.404 
01:30	14.9	14.9	14.9	80	9.9	0	1	248	0.00	30.400 
01:35	15.1	15.1	15.1	81	10.3	0	0	---	0.00	30.400 
01:40	15.2	15.2	15.2	81	10.4	0	2	248	0.00	30.400 
01:45	15.6	15.6	15.6	81	10.8	0	1	248	0.00	30.402 
01:50	15.9	15.9	15.9	81	11.1	0	2	248	0.00	30.402 
01:55	16.2	16.2	16.2	81	11.4	1	2	248	0.00	30.402 
02:00	16.4	16.4	16.4	80	11.3	0	3	248	0.00	30.401 
02:05	16.5	16.5	16.5	80	11.4	0	3	248	0.00	30.401 
02:10	16.7	16.7	16.7	79	11.3	0	2	248	0.00	30.401 
02:15	16.7	16.7	16.7	79	11.3	0	1	248	0.00	30.399 
02:20	16.9	16.9	16.9	79	11.5	0	3	248	0.00	30.399 
02:25	16.9	16.9	16.9	78	11.3	0	3	248	0.00	30.399 
02:30	16.9	16.9	16.9	78	11.3	0	2	248	0.00	30.396 
02:35	17.0	17.0	17.0	78	11.3	0	1	248	0.00	30.396 
02:40	17.0	17.0	17.0	78	11.3	0	1	248	0.00	30.396 
02:45	17.0	17.0	17.0	78	11.3	0	2	248	0.00	30.393 
02:50	17.0	17.0	17.0	77	11.1	0	2	248	0.00	30.393 
02:55	17.0	17.0	17.0	77	11.1	0	2	248	0.00	30.393 
03:00	17.0	17.0	17.0	77	11.1	0	2	248	0.00	30.392 
03:05	17.0	17.0	17.0	77	11.1	0	1	248	0.00	30.392 
03:10	17.0	17.0	17.0	77	11.1	0	1	248	0.00	30.392 
03:15	17.0	17.0	17.0	77	11.1	0	0	---	0.00	30.386 
03:20	17.0	17.0	17.0	77	11.1	0	0	---	0.00	30.386 
03:25	16.9	16.9	16.9	77	11.0	0	1	248	0.00	30.386 
03:30	16.9	16.9	16.9	78	11.3	0	1	248	0.00	30.382 
03:35	16.7	16.7	16.7	78	11.1	0	0	---	0.00	30.382 
03:40	16.7	16.7	16.7	78	11.1	0	0	---	0.00	30.382 
03:45	16.5	16.5	16.5	78	10.9	0	0	---	0.00	30.383 
03:50	16.5	16.5	16.5	79	11.1	0	0	---	0.00	30.383 
03:55	16.5	16.5	16.5	79	11.1	0	0	---	0.00	30.383 
04:00	16.4	16.4	16.4	79	11.0	0	0	---	0.00	30.381 
04:05	16.4	16.4	16.4	79	11.0	0	1	248	0.00	30.381 
04:10	16.4	16.4	16.4	79	11.0	0	0	---	0.00	30.381 
04:15	16.4	16.4	16.4	79	11.0	0	0	---	0.00	30.382 
04:20	16.4	16.4	16.4	80	11.3	0	0	---	0.00	30.382 
04:25	16.4	16.4	16.4	80	11.3	0	0	---	0.00	30.382 
04:30	16.5	16.5	16.5	80	11.4	0	0	---	0.00	30.380 
04:35	16.5	16.5	16.5	80	11.4	0	0	---	0.00	30.380 
04:40	16.5	16.5	16.5	80	11.4	0	0	---	0.00	30.380 
04:45	16.5	16.5	16.5	80	11.4	0	0	---	0.00	30.379 
04:50	16.5	16.5	16.5	80	11.4	0	0	---	0.00	30.379 
04:55	16.5	16.5	16.5	80	11.4	0	0	---	0.00	30.379 
05:00	16.5	16.5	16.5	80	11.4	0	1	248	0.00	30.375 
05:05	16.7	16.7	16.7	81	11.9	0	0	---	0.00	30.375 
05:10	16.7	16.7	16.7	81	11.9	0	0	---	0.00	30.375 
05:15	16.7	16.7	16.7	81	11.9	0	0	---	0.00	30.377 
05:20	16.7	16.7	16.7	81	11.9	0	0	---	0.00	30.377 
05:25	16.7	16.7	16.7	81	11.9	0	0	---	0.00	30.377 
05:30	16.7	16.7	16.7	81	11.9	0	1	248	0.00	30.368 
05:35	16.9	16.9	16.9	81	12.1	0	2	248	0.00	30.368 
05:40	16.9	16.9	16.9	81	12.1	0	0	---	0.00	30.368 
05:45	17.0	17.0	17.0	81	12.2	0	1	248	0.00	30.365 
05:50	17.0	17.0	17.0	81	12.2	0	0	---	0.00	30.365 
05:55	17.2	17.2	17.2	81	12.4	0	0	---	0.00	30.365 
06:00	17.2	17.2	17.2	81	12.4	0	1	248	0.00	30.361 
06:05	17.3	17.3	17.3	81	12.5	0	1	248	0.00	30.361 
06:10	17.5	17.5	17.5	81	12.7	0	1	248	0.00	30.361 
06:15	17.5	17.5	17.5	81	12.7	0	1	248	0.00	30.351 
06:20	17.5	17.5	17.5	81	12.7	0	1	248	0.00	30.351 
06:25	17.5	17.5	17.5	81	12.7	0	1	248	0.00	30.351 
06:30	17.7	17.7	17.7	81	12.9	0	0	---	0.00	30.349 
06:35	17.7	17.7	17.7	81	12.9	0	1	248	0.00	30.349 
06:40	17.7	17.7	17.7	81	12.9	0	1	248	0.00	30.349 
06:45	17.8	17.8	17.8	81	13.0	0	1	248	0.00	30.349 
06:50	17.8	17.8	17.8	80	12.7	0	1	248	0.00	30.349 
06:55	17.8	17.8	17.8	80	12.7	0	1	248	0.00	30.349 
07:00	17.8	17.8	17.8	80	12.7	0	1	248	0.00	30.347 
07:05	18.0	18.0	18.0	80	12.9	0	1	248	0.00	30.347 
07:10	18.0	18.0	18.0	80	12.9	0	1	248	0.00	30.347 
07:15	18.0	18.0	18.0	80	12.9	0	2	248	0.00	30.344 
07:20	18.0	18.0	18.0	80	12.9	0	0	---	0.00	30.344 
07:25	18.0	18.0	18.0	80	12.9	0	0	---	0.00	30.344 
07:30	18.0	18.0	18.0	80	12.9	0	0	---	0.00	30.348 
07:35	18.1	18.1	18.1	80	13.0	0	1	248	0.00	30.348 
07:40	18.1	18.1	18.1	80	13.0	0	1	248	0.00	30.348 
07:45	18.1	18.1	18.1	80	13.0	0	2	90	0.00	30.347 
07:50	18.1	18.1	18.1	79	12.7	0	1	90	0.00	30.347 
07:55	18.3	18.3	18.3	79	12.9	0	1	112	0.00	30.347 
08:00	18.3	18.3	18.3	79	12.9	0	1	112	0.00	30.348 
08:05	18.3	18.3	18.3	79	12.9	0	1	112	0.00	30.348 
08:10	18.4	18.4	18.4	79	13.0	0	0	---	0.00	30.348 
08:15	18.4	18.4	18.4	79	13.0	0	1	112	0.00	30.350 
08:20	18.4	18.4	18.4	79	13.0	0	1	112	0.00	30.350 
08:25	18.6	18.6	18.6	79	13.2	0	1	112	0.00	30.350 
08:30	18.6	18.6	18.6	79	13.2	0	0	---	0.00	30.358 
08:35	18.6	18.6	18.6	79	13.2	0	0	---	0.00	30.358 
08:40	18.8	18.8	18.8	79	13.4	0	1	112	0.00	30.358 
08:45	18.8	18.8	18.8	79	13.4	0	0	---	0.00	30.363 
08:50	18.9	18.9	18.9	80	13.8	0	1	112	0.00	30.363 
08:55	19.1	19.1	19.1	79	13.7	0	1	112	0.00	30.363 
09:00	19.2	19.2	19.2	79	13.8	0	1	112	0.00	30.364 
09:05	19.4	19.4	19.4	79	14.0	0	1	112	0.00	30.364 
09:10	19.4	19.4	19.4	79	14.0	0	2	112	0.00	30.364 
09:15	19.5	19.5	19.5	79	14.1	0	1	112	0.00	30.366 
09:20	19.7	19.7	19.7	79	14.3	0	1	112	0.00	30.366 
09:25	19.9	19.9	19.9	78	14.2	0	1	112	0.00	30.366 
09:30	20.0	20.0	20.0	78	14.3	0	2	112	0.00	30.366 
09:35	20.2	20.2	20.2	78	14.5	0	2	112	0.00	30.366 
09:40	20.2	20.2	20.2	78	14.5	0	2	112	0.00	30.366 
09:45	20.5	20.5	20.5	77	14.5	0	2	112	0.00	30.366 
09:50	20.6	20.6	20.6	77	14.6	0	2	112	0.00	30.366 
09:55	20.6	20.6	20.6	77	14.6	0	4	112	0.00	30.366 
10:00	20.8	20.8	20.8	77	14.7	0	2	112	0.00	30.365 
10:05	21.0	21.0	21.0	77	14.9	0	2	112	0.00	30.365 
10:10	21.1	21.1	21.1	77	15.0	0	2	112	0.00	30.365 
10:15	21.3	21.3	21.3	76	14.9	1	2	112	0.00	30.365 
10:20	21.3	21.3	21.3	76	14.9	1	2	112	0.00	30.365 
10:25	21.6	21.6	21.6	76	15.2	0	2	112	0.00	30.365 
10:30	21.8	21.8	21.8	76	15.4	1	2	112	0.00	30.365 
10:35	21.9	21.9	21.9	76	15.5	1	3	112	0.00	30.365 
10:40	22.1	22.1	22.1	76	15.7	1	2	112	0.00	30.365 
10:45	22.2	22.2	22.2	75	15.5	1	4	112	0.00	30.365 
10:50	22.4	22.4	22.4	75	15.7	0	1	112	0.00	30.365 
10:55	22.7	22.7	22.7	75	16.0	0	2	112	0.00	30.365 
11:00	22.9	22.9	22.9	74	15.9	1	5	112	0.00	30.362 
11:05	23.0	23.0	23.0	74	16.0	1	3	90	0.00	30.362 
11:10	23.2	23.2	23.2	74	16.2	0	2	248	0.00	30.362 
11:15	23.6	23.6	23.6	74	16.6	0	1	248	0.00	30.361 
11:20	23.9	23.9	23.9	73	16.5	1	3	112	0.00	30.361 
11:25	24.1	24.1	24.1	73	16.7	0	1	112	0.00	30.361 
11:30	24.1	24.1	24.1	72	16.4	1	3	90	0.00	30.360 
11:35	24.2	24.2	24.2	72	16.5	0	2	90	0.00	30.360 
11:40	24.7	24.7	24.7	72	17.0	0	1	90	0.00	30.360 
11:45	25.0	25.0	25.0	71	16.9	0	2	90	0.00	30.352 
11:50	25.0	25.0	25.0	70	16.6	1	3	90	0.00	30.352 
11:55	25.3	25.3	25.3	70	16.9	1	3	270	0.00	30.352 
12:00	25.4	25.4	25.4	69	16.7	1	3	270	0.00	30.346 
12:05	25.4	25.4	25.4	70	17.0	1	3	270	0.00	30.346 
12:10	25.7	25.7	25.7	69	17.0	1	3	270	0.00	30.346 
12:15	25.8	25.8	25.8	69	17.1	1	2	270	0.00	30.346 
12:20	26.0	26.0	26.0	69	17.2	1	3	270	0.00	30.346 
12:25	26.0	26.0	26.0	68	16.9	1	5	270	0.00	30.346 
12:30	26.0	26.0	26.0	68	16.9	0	2	270	0.00	30.337 
12:35	26.0	26.0	26.0	68	16.9	0	2	270	0.00	30.337 
12:40	26.3	26.3	26.3	69	17.5	0	2	270	0.00	30.337 
12:45	26.3	26.3	26.3	68	17.2	1	3	270	0.00	30.331 
12:50	26.3	26.3	26.3	68	17.2	0	1	270	0.00	30.331 
12:55	26.1	26.1	26.1	68	17.0	1	4	68	0.00	30.331 
13:00	26.3	26.3	26.3	69	17.5	0	2	68	0.00	30.325 
13:05	26.6	26.6	26.6	68	17.5	0	2	68	0.00	30.325 
13:10	26.7	26.7	26.7	68	17.6	1	4	248	0.00	30.325 
13:15	26.9	26.9	26.9	67	17.4	0	1	248	0.00	30.314 
13:20	27.0	27.0	27.0	67	17.5	1	3	248	0.00	30.314 
13:25	27.0	27.0	27.0	67	17.5	1	2	225	0.00	30.314 
13:30	27.5	27.5	27.5	66	17.7	0	2	225	0.00	30.312 
13:35	27.6	27.6	27.6	65	17.4	0	2	225	0.00	30.312 
13:40	27.6	27.6	27.6	65	17.4	1	3	112	0.00	30.312 
13:45	27.6	27.6	27.6	66	17.8	0	2	270	0.00	30.308 
13:50	27.8	27.8	27.8	65	17.6	1	2	270	0.00	30.308 
13:55	27.9	27.9	27.9	65	17.7	0	2	270	0.00	30.308 
14:00	27.9	27.9	27.9	66	18.0	1	2	270	0.00	30.307 
14:05	27.9	27.9	27.9	65	17.7	1	4	270	0.00	30.307 
14:10	27.8	27.8	27.8	65	17.6	1	3	270	0.00	30.307 
14:15	27.9	27.9	27.9	65	17.7	0	2	270	0.00	30.302 
14:20	27.9	27.9	27.9	65	17.7	0	2	270	0.00	30.302 
14:25	27.8	27.8	27.8	65	17.6	1	3	270	0.00	30.302 
14:30	27.3	27.3	27.3	67	17.8	0	3	270	0.00	30.297 
14:35	27.2	27.2	27.2	67	17.7	0	2	270	0.00	30.297 
14:40	27.0	27.0	27.0	67	17.5	0	2	270	0.00	30.297 
14:45	26.9	26.9	26.9	68	17.8	1	3	270	0.00	30.296 
14:50	26.6	26.6	26.6	69	17.8	1	3	90	0.00	30.296 
14:55	26.6	26.6	26.6	69	17.8	0	2	90	0.00	30.296 
15:00	26.7	26.7	26.7	68	17.6	1	2	90	0.00	30.294 
15:05	26.6	26.6	26.6	69	17.8	1	2	90	0.00	30.294 
15:10	26.7	26.7	26.7	69	17.9	0	1	90	0.00	30.294 
15:15	26.7	26.7	26.7	68	17.6	0	3	112	0.00	30.297 
15:20	26.7	26.7	26.7	69	17.9	0	2	270	0.00	30.297 
15:25	26.9	26.9	26.9	69	18.1	0	2	248	0.00	30.297 
15:30	26.9	26.9	26.9	69	18.1	0	1	248	0.00	30.299 
15:35	26.7	26.7	26.7	68	17.6	0	2	248	0.00	30.299 
15:40	26.7	26.7	26.7	69	17.9	0	2	248	0.00	30.299 
15:45	26.7	26.7	26.7	69	17.9	0	2	248	0.00	30.299 
15:50	26.6	26.6	26.6	69	17.8	0	2	202	0.00	30.299 
15:55	26.4	26.4	26.4	69	17.6	0	2	292	0.00	30.299 
16:00	26.4	26.4	26.4	69	17.6	0	2	0	0.00	30.298 
16:05	26.4	26.4	26.4	69	17.6	1	3	0	0.00	30.298 
16:10	26.4	26.4	26.4	69	17.6	1	3	68	0.00	30.298 
16:15	26.3	26.3	26.3	69	17.5	1	4	68	0.00	30.299 
16:20	26.3	26.3	26.3	70	17.9	0	2	292	0.00	30.299 
16:25	26.3	26.3	26.3	70	17.9	0	1	292	0.00	30.299 
16:30	26.3	26.3	26.3	69	17.5	0	3	90	0.00	30.299 
16:35	26.3	26.3	26.3	69	17.5	1	4	248	0.00	30.299 
16:40	26.1	26.1	26.1	69	17.3	0	2	248	0.00	30.299 
16:45	26.0	26.0	26.0	70	17.6	0	2	248	0.00	30.300 
16:50	26.0	26.0	26.0	70	17.6	0	2	202	0.00	30.300 
16:55	25.8	25.8	25.8	71	17.7	0	1	202	0.00	30.300 
17:00	25.7	25.7	25.7	71	17.6	0	2	202	0.00	30.299 
17:05	25.7	25.7	25.7	71	17.6	0	2	202	0.00	30.299 
17:10	25.6	25.6	25.6	72	17.8	0	1	112	0.00	30.299 
17:15	25.6	25.6	25.6	72	17.8	0	1	112	0.00	30.299 
17:20	25.6	25.6	25.6	72	17.8	0	1	112	0.00	30.299 
17:25	25.4	25.4	25.4	72	17.7	0	2	112	0.00	30.299 
17:30	25.4	25.4	25.4	73	18.0	0	1	112	0.00	30.297 
17:35	25.3	25.3	25.3	73	17.9	0	1	112	0.00	30.297 
17:40	25.3	25.3	25.3	73	17.9	0	1	112	0.00	30.297 
17:45	25.1	25.1	25.1	73	17.7	0	1	112	0.00	30.296 
17:50	25.0	25.0	25.0	73	17.6	0	2	112	0.00	30.296 
17:55	25.0	25.0	25.0	73	17.6	0	2	112	0.00	30.296 
18:00	24.8	24.8	24.8	73	17.4	0	1	112	0.00	30.292 
18:05	24.7	24.7	24.7	73	17.3	0	1	112	0.00	30.292 
18:10	24.5	24.5	24.5	73	17.1	0	1	180	0.00	30.292 
18:15	24.4	24.4	24.4	73	17.0	0	1	180	0.00	30.291 
18:20	24.4	24.4	24.4	73	17.0	0	2	180	0.00	30.291 
18:25	24.2	24.2	24.2	74	17.1	0	1	180	0.00	30.291 
18:30	24.1	24.1	24.1	74	17.0	0	0	---	0.00	30.286 
18:35	24.1	24.1	24.1	74	17.0	0	0	---	0.00	30.286 
18:40	23.9	23.9	23.9	74	16.8	0	0	---	0.00	30.286 
18:45	23.8	23.8	23.8	74	16.7	0	0	---	0.00	30.288 
18:50	23.6	23.6	23.6	75	16.9	0	0	---	0.00	30.288 
18:55	23.6	23.6	23.6	75	16.9	0	0	---	0.00	30.288 
19:00	23.5	23.5	23.5	75	16.8	0	0	---	0.00	30.291 
19:05	23.3	23.3	23.3	75	16.6	0	0	---	0.00	30.291 
19:10	23.2	23.2	23.2	76	16.8	0	0	---	0.00	30.291 
19:15	23.0	23.0	23.0	76	16.6	0	1	180	0.00	30.292 
19:20	23.0	23.0	23.0	76	16.6	0	0	---	0.00	30.292 
19:25	22.9	22.9	22.9	77	16.8	0	0	---	0.00	30.292 
19:30	22.7	22.7	22.7	77	16.6	0	0	---	0.00	30.294 
19:35	22.7	22.7	22.7	77	16.6	0	0	---	0.00	30.294 
19:40	22.5	22.5	22.5	77	16.4	0	0	---	0.00	30.294 
19:45	22.4	22.4	22.4	77	16.3	0	0	---	0.00	30.291 
19:50	22.4	22.4	22.4	77	16.3	0	0	---	0.00	30.291 
19:55	22.4	22.4	22.4	77	16.3	0	0	---	0.00	30.291 
20:00	22.4	22.4	22.4	78	16.6	0	0	---	0.00	30.284 
20:05	22.4	22.4	22.4	78	16.6	0	0	---	0.00	30.284 
20:10	22.5	22.5	22.5	78	16.7	0	0	---	0.00	30.284 
20:15	22.5	22.5	22.5	78	16.7	0	0	---	0.00	30.278 
20:20	22.5	22.5	22.5	78	16.7	0	0	---	0.00	30.278 
20:25	22.5	22.5	22.5	78	16.7	0	0	---	0.00	30.278 
20:30	22.5	22.5	22.5	78	16.7	0	0	---	0.00	30.272 
20:35	22.5	22.5	22.5	78	16.7	0	0	---	0.00	30.272 
20:40	22.5	22.5	22.5	78	16.7	0	0	---	0.00	30.272 
20:45	22.7	22.7	22.7	78	16.9	0	0	---	0.00	30.267 
20:50	22.9	22.9	22.9	78	17.1	0	0	---	0.00	30.267 
20:55	22.9	22.9	22.9	78	17.1	0	0	---	0.00	30.267 
21:00	23.0	23.0	23.0	78	17.2	0	1	180	0.00	30.258 
21:05	23.2	23.2	23.2	78	17.4	0	1	180	0.00	30.258 
21:10	23.2	23.2	23.2	77	17.1	0	0	---	0.00	30.258 
21:15	23.2	23.2	23.2	77	17.1	0	0	---	0.00	30.248 
21:20	23.2	23.2	23.2	77	17.1	0	1	180	0.00	30.248 
21:25	23.2	23.2	23.2	77	17.1	0	0	---	0.00	30.248 
21:30	23.2	23.2	23.2	77	17.1	0	0	---	0.00	30.244 
21:35	23.2	23.2	23.2	77	17.1	0	1	180	0.00	30.244 
21:40	23.2	23.2	23.2	77	17.1	0	1	180	0.00	30.244 
21:45	23.2	23.2	23.2	77	17.1	0	1	180	0.00	30.235 
21:50	23.2	23.2	23.2	77	17.1	0	1	180	0.00	30.235 
21:55	23.2	23.2	23.2	77	17.1	0	1	180	0.00	30.235 
22:00	23.2	23.2	23.2	77	17.1	0	1	180	0.00	30.230 
22:05	23.2	23.2	23.2	77	17.1	0	1	180	0.00	30.230 
22:10	23.3	23.3	23.3	76	16.9	0	1	180	0.00	30.230 
22:15	23.3	23.3	23.3	76	16.9	0	1	180	0.00	30.224 
22:20	23.3	23.3	23.3	77	17.2	0	1	180	0.00	30.224 
22:25	23.3	23.3	23.3	77	17.2	0	0	---	0.00	30.224 
22:30	23.3	23.3	23.3	77	17.2	0	0	---	0.00	30.214 
22:35	23.3	23.3	23.3	77	17.2	0	0	---	0.00	30.214 
22:40	23.3	23.3	23.3	77	17.2	0	0	---	0.00	30.214 
22:45	23.2	23.2	23.2	77	17.1	0	0	---	0.00	30.210 
22:50	23.2	23.2	23.2	77	17.1	0	0	---	0.00	30.210 
22:55	23.2	23.2	23.2	77	17.1	0	1	180	0.00	30.210 
23:00	23.0	23.0	23.0	77	16.9	0	1	180	0.00	30.200 
23:05	23.0	23.0	23.0	77	16.9	0	1	180	0.00	30.200 
23:10	23.0	23.0	23.0	77	16.9	0	2	180	0.00	30.200 
23:15	23.0	23.0	23.0	77	16.9	0	2	180	0.00	30.199 
23:20	23.2	23.2	23.2	77	17.1	0	1	225	0.00	30.199 
23:25	23.2	23.2	23.2	77	17.1	0	2	225	0.00	30.199 
23:30	23.3	23.3	23.3	77	17.2	0	2	225	0.00	30.195 
23:35	23.3	23.3	23.3	77	17.2	0	1	225	0.00	30.195 
23:40	23.5	23.5	23.5	77	17.4	0	1	225	0.00	30.195 
23:45	23.5	23.5	23.5	77	17.4	0	2	225	0.00	30.179 
23:50	23.5	23.5	23.5	77	17.4	0	2	225	0.00	30.179 
23:55	23.6	23.6	23.6	77	17.5	1	3	225	0.00	30.179 

CoCoRaHS
IN-AL-39
A2 Web Hosting
Creative Commons License
GoDaddy
search engine by freefind advanced

loaded 2018-11-20 14:21:52 • last modified 2010-11-18 10:43:29
Privacy PolicyDisclaimer
• wx.awcolley.com is powered by PmWiki v.2002016 •
• all content (unless otherwise noted) © 2018 A W Colley